createdAt,value
2022-09-11T00:01:29.122Z,75.88
2022-09-11T00:03:56.480Z,75.99
2022-09-11T00:06:29.795Z,75.66
2022-09-11T00:09:01.761Z,75.24
2022-09-11T00:11:40.456Z,76.02
2022-09-11T00:14:10.153Z,77.51
2022-09-11T00:16:41.190Z,75.65
2022-09-11T00:19:16.666Z,74.93
2022-09-11T00:21:43.507Z,74.23
2022-09-11T00:24:10.329Z,73.72
2022-09-11T00:26:41.053Z,73.59
2022-09-11T00:29:08.381Z,74.75
2022-09-11T00:31:35.338Z,74.82
2022-09-11T00:34:02.256Z,75.16
2022-09-11T00:36:35.650Z,74.34
2022-09-11T00:39:02.447Z,74.61
2022-09-11T00:41:35.976Z,73.94
2022-09-11T00:44:04.660Z,73.55
2022-09-11T00:46:43.414Z,73.99
2022-09-11T00:49:16.665Z,75.52
2022-09-11T00:51:49.276Z,76.26
2022-09-11T00:54:21.594Z,75.31
2022-09-11T00:56:50.212Z,75.25
2022-09-11T00:59:20.495Z,75.51
2022-09-11T01:01:47.966Z,75.04
2022-09-11T01:04:14.959Z,76.03
2022-09-11T01:06:41.752Z,75.87
2022-09-11T01:09:08.529Z,75.18
2022-09-11T01:12:19.213Z,75.17
2022-09-11T01:14:56.470Z,75.41
2022-09-11T01:17:57.122Z,74.98
2022-09-11T01:20:55.175Z,75.15
2022-09-11T01:23:49.286Z,75.98
2022-09-11T01:26:36.855Z,75.33
2022-09-11T01:29:50.598Z,75.75
2022-09-11T01:32:24.041Z,76.33
2022-09-11T01:34:59.881Z,75.78
2022-09-11T01:37:53.567Z,75.15
2022-09-11T01:40:40.633Z,76.05
2022-09-11T01:43:14.109Z,75.73
2022-09-11T01:45:45.875Z,75.70
2022-09-11T01:48:18.011Z,75.74
2022-09-11T01:50:47.394Z,75.98
2022-09-11T01:53:17.767Z,75.32
2022-09-11T01:56:05.062Z,75.42
2022-09-11T01:58:36.250Z,75.32
2022-09-11T02:01:23.376Z,75.81
2022-09-11T02:04:10.529Z,75.45
2022-09-11T02:06:48.831Z,76.01
2022-09-11T02:09:21.417Z,75.19
2022-09-11T02:11:51.819Z,75.72
2022-09-11T02:14:40.570Z,75.44
2022-09-11T02:17:21.983Z,75.76
2022-09-11T02:19:49.430Z,76.54
2022-09-11T02:22:16.227Z,76.56
2022-09-11T02:24:43.015Z,76.11
2022-09-11T02:27:14.907Z,75.59
2022-09-11T02:29:42.122Z,76.56
2022-09-11T02:32:11.068Z,77.94
2022-09-11T02:34:40.829Z,77.77
2022-09-11T02:37:49.150Z,78.54
2022-09-11T02:40:34.198Z,78.51
2022-09-11T02:43:30.911Z,78.21
2022-09-11T02:46:14.754Z,77.65
2022-09-11T02:49:09.344Z,79.00
2022-09-11T02:51:46.927Z,78.79
2022-09-11T02:55:00.282Z,78.84
2022-09-11T02:57:37.111Z,78.75
2022-09-11T03:00:07.847Z,79.56
2022-09-11T03:02:39.924Z,79.39
2022-09-11T03:05:08.107Z,79.80
2022-09-11T03:07:34.945Z,79.03
2022-09-11T03:10:02.002Z,78.87
2022-09-11T03:12:28.787Z,78.69
2022-09-11T03:14:57.074Z,78.85
2022-09-11T03:17:25.438Z,79.02
2022-09-11T03:19:52.275Z,78.98
2022-09-11T03:22:19.248Z,78.51
2022-09-11T03:24:46.054Z,78.59
2022-09-11T03:27:12.848Z,79.16
2022-09-11T03:29:40.686Z,78.61
2022-09-11T03:32:07.450Z,78.75
2022-09-11T03:34:34.286Z,79.02
2022-09-11T03:37:02.117Z,78.63
2022-09-11T03:39:29.057Z,78.34
2022-09-11T03:41:55.796Z,78.43
2022-09-11T03:44:23.086Z,77.80
2022-09-11T03:46:49.847Z,77.55
2022-09-11T03:49:16.583Z,78.11
2022-09-11T03:51:43.342Z,77.78
2022-09-11T03:54:11.010Z,78.78
2022-09-11T03:56:37.977Z,78.27
2022-09-11T03:59:04.770Z,77.80
2022-09-11T04:01:31.570Z,78.00
2022-09-11T04:03:58.310Z,78.22
2022-09-11T04:06:25.073Z,77.73
2022-09-11T04:08:51.822Z,77.59
2022-09-11T04:11:18.665Z,77.97
2022-09-11T04:13:45.625Z,77.85
2022-09-11T04:16:16.492Z,78.30
2022-09-11T04:18:45.900Z,78.01
2022-09-11T04:21:15.989Z,78.04
2022-09-11T04:23:43.090Z,77.80
2022-09-11T04:26:19.518Z,78.76
2022-09-11T04:28:46.755Z,79.19
2022-09-11T04:31:15.963Z,78.46
2022-09-11T04:33:43.776Z,79.19
2022-09-11T04:36:17.375Z,78.79
2022-09-11T04:38:44.727Z,78.93
2022-09-11T04:41:11.703Z,78.06
2022-09-11T04:43:40.535Z,78.76
2022-09-11T04:46:14.214Z,78.77
2022-09-11T04:48:49.007Z,78.62
2022-09-11T04:51:32.045Z,79.62
2022-09-11T04:53:59.775Z,80.40
2022-09-11T04:56:30.441Z,79.54
2022-09-11T04:59:09.566Z,81.50
2022-09-11T05:01:36.523Z,81.12
2022-09-11T05:04:03.601Z,79.95
2022-09-11T05:06:31.147Z,79.20
2022-09-11T05:09:03.633Z,78.89
2022-09-11T05:11:30.455Z,78.56
2022-09-11T05:14:00.157Z,77.48
2022-09-11T05:16:29.333Z,77.03
2022-09-11T05:18:57.670Z,77.26
2022-09-11T05:21:26.300Z,76.79
2022-09-11T05:23:58.702Z,76.67
2022-09-11T05:26:35.128Z,76.61
2022-09-11T05:29:14.774Z,77.21
2022-09-11T05:31:42.021Z,77.43
2022-09-11T05:34:08.884Z,77.25
2022-09-11T05:36:35.890Z,76.61
2022-09-11T05:39:03.841Z,75.18
2022-09-11T05:41:30.618Z,75.66
2022-09-11T05:43:58.759Z,74.34
2022-09-11T05:46:25.947Z,74.03
2022-09-11T05:48:52.719Z,74.40
2022-09-11T05:51:21.678Z,74.93
2022-09-11T05:53:53.039Z,74.52
2022-09-11T05:56:25.358Z,74.13
2022-09-11T05:58:52.597Z,74.21
2022-09-11T06:01:26.283Z,75.08
2022-09-11T06:03:54.250Z,74.95
2022-09-11T06:06:22.839Z,75.47
2022-09-11T06:08:51.685Z,75.96
2022-09-11T06:11:20.958Z,77.90
2022-09-11T06:13:49.001Z,77.69
2022-09-11T06:16:22.327Z,75.91
2022-09-11T06:18:50.974Z,77.03
2022-09-11T06:21:20.838Z,76.24
2022-09-11T06:23:49.449Z,76.37
2022-09-11T06:26:22.791Z,76.28
2022-09-11T06:28:50.890Z,77.55
2022-09-11T06:31:24.284Z,80.14
2022-09-11T06:33:51.451Z,78.32
2022-09-11T06:36:26.553Z,78.04
2022-09-11T06:38:57.551Z,78.63
2022-09-11T06:41:26.235Z,77.53
2022-09-11T06:43:53.381Z,76.79
2022-09-11T06:46:23.779Z,77.46
2022-09-11T06:48:51.932Z,78.07
2022-09-11T06:51:21.447Z,77.85
2022-09-11T06:53:48.786Z,78.34
2022-09-11T06:56:18.580Z,77.77
2022-09-11T06:58:46.136Z,77.11
2022-09-11T07:01:16.712Z,77.17
2022-09-11T07:03:45.727Z,76.89
2022-09-11T07:06:14.255Z,75.89
2022-09-11T07:08:41.265Z,76.07
2022-09-11T07:11:11.318Z,76.32
2022-09-11T07:13:39.530Z,76.04
2022-09-11T07:16:09.728Z,75.45
2022-09-11T07:18:39.854Z,75.45
2022-09-11T07:21:11.127Z,75.82
2022-09-11T07:23:39.371Z,77.13
2022-09-11T07:26:09.486Z,77.81
2022-09-11T07:28:37.678Z,78.15
2022-09-11T07:31:19.953Z,77.92
2022-09-11T07:33:49.695Z,78.98
2022-09-11T07:36:22.338Z,77.81
2022-09-11T07:38:50.617Z,77.07
2022-09-11T07:41:21.200Z,77.26
2022-09-11T07:44:00.119Z,77.23
2022-09-11T07:49:18.266Z,76.73
2022-09-11T07:51:45.008Z,75.62
2022-09-11T07:54:11.854Z,75.38
2022-09-11T07:56:38.703Z,75.38
2022-09-11T07:59:09.072Z,75.64
2022-09-11T08:01:35.875Z,76.07
2022-09-11T08:04:06.335Z,76.17
2022-09-11T08:06:36.093Z,76.75
2022-09-11T08:09:07.486Z,75.67
2022-09-11T08:11:46.943Z,75.23
2022-09-11T08:14:15.110Z,74.96
2022-09-11T08:16:42.449Z,75.74
2022-09-11T08:19:19.983Z,74.54
2022-09-11T08:21:47.791Z,73.62
2022-09-11T08:24:17.054Z,73.73
2022-09-11T08:26:48.586Z,74.13
2022-09-11T08:29:16.206Z,72.85
2022-09-11T08:31:42.966Z,73.44
2022-09-11T08:34:10.269Z,72.87
2022-09-11T08:36:37.156Z,72.88
2022-09-11T08:39:05.198Z,72.79
2022-09-11T08:41:48.874Z,73.20
2022-09-11T08:44:22.541Z,73.46
2022-09-11T08:47:06.839Z,73.55
2022-09-11T08:49:43.302Z,73.25
2022-09-11T08:52:15.147Z,72.91
2022-09-11T08:54:43.837Z,73.79
2022-09-11T08:57:23.227Z,73.63
2022-09-11T08:59:59.662Z,73.16
2022-09-11T09:03:17.626Z,75.39
2022-09-11T09:06:45.161Z,75.57
2022-09-11T09:10:01.627Z,74.93
2022-09-11T09:12:53.117Z,74.53
2022-09-11T09:15:48.233Z,75.08
2022-09-11T09:18:42.030Z,74.09
2022-09-11T09:21:20.158Z,73.92
2022-09-11T09:23:54.435Z,74.35
2022-09-11T09:26:26.567Z,74.35
2022-09-11T09:28:58.348Z,74.85
2022-09-11T09:31:30.630Z,75.35
2022-09-11T09:34:04.858Z,75.02
2022-09-11T09:36:43.650Z,75.19
2022-09-11T09:39:14.664Z,74.39
2022-09-11T09:42:34.054Z,74.42
2022-09-11T09:45:42.106Z,74.34
2022-09-11T09:48:11.808Z,73.77
2022-09-11T09:50:41.964Z,72.97
2022-09-11T09:53:21.181Z,73.48
2022-09-11T09:55:49.071Z,72.60
2022-09-11T09:58:15.877Z,71.49
2022-09-11T10:00:42.723Z,71.47
2022-09-11T10:03:24.299Z,71.19
2022-09-11T10:05:55.907Z,71.41
2022-09-11T10:08:37.987Z,72.27
2022-09-11T10:11:08.230Z,71.75
2022-09-11T10:13:41.637Z,71.86
2022-09-11T10:16:26.565Z,71.55
2022-09-11T10:18:55.792Z,70.49
2022-09-11T10:21:33.982Z,71.25
2022-09-11T10:24:23.233Z,69.46
2022-09-11T10:26:53.099Z,69.46
2022-09-11T10:29:24.731Z,68.96
2022-09-11T10:32:02.400Z,70.05
2022-09-11T10:34:37.882Z,69.68
2022-09-11T10:37:27.684Z,68.91
2022-09-11T10:40:04.630Z,69.72
2022-09-11T10:42:35.132Z,69.43
2022-09-11T10:45:16.888Z,69.44
2022-09-11T10:47:46.015Z,68.05
2022-09-11T10:50:23.002Z,67.55
2022-09-11T10:53:05.761Z,66.32
2022-09-11T10:55:42.467Z,65.92
2022-09-11T10:58:18.310Z,65.77
2022-09-11T11:00:45.557Z,64.21
2022-09-11T11:03:24.363Z,63.99
2022-09-11T11:06:23.589Z,63.01
2022-09-11T11:09:21.530Z,62.79
2022-09-11T11:12:27.467Z,64.37
2022-09-11T11:15:30.343Z,63.88
2022-09-11T11:18:21.314Z,64.96
2022-09-11T11:21:16.637Z,65.08
2022-09-11T11:24:23.939Z,62.40
2022-09-11T11:27:24.705Z,61.01
2022-09-11T11:30:23.965Z,61.89
2022-09-11T11:33:23.389Z,60.37
2022-09-11T11:36:14.286Z,62.41
2022-09-11T11:38:48.539Z,60.86
2022-09-11T11:41:44.517Z,59.54
2022-09-11T11:44:18.620Z,57.76
2022-09-11T11:46:52.174Z,56.61
2022-09-11T11:49:41.859Z,54.46
2022-09-11T11:52:36.087Z,55.40
2022-09-11T11:55:24.821Z,57.36
2022-09-11T11:58:06.249Z,57.03
2022-09-11T12:00:42.210Z,59.45
2022-09-11T12:03:25.381Z,58.45
2022-09-11T12:05:52.230Z,59.90
2022-09-11T12:08:19.181Z,60.08
2022-09-11T12:11:04.782Z,61.31
2022-09-11T12:13:37.054Z,60.42
2022-09-11T12:16:20.390Z,62.37
2022-09-11T12:19:22.196Z,63.14
2022-09-11T12:21:54.923Z,61.52
2022-09-11T12:24:54.929Z,60.98
2022-09-11T12:27:34.307Z,60.49
2022-09-11T12:30:20.242Z,61.49
2022-09-11T12:32:55.942Z,61.59
2022-09-11T12:35:45.139Z,63.02
2022-09-11T12:38:32.594Z,62.78
2022-09-11T12:41:07.279Z,63.48
2022-09-11T12:43:37.218Z,62.38
2022-09-11T12:46:36.677Z,60.86
2022-09-11T12:49:21.468Z,58.89
2022-09-11T12:51:59.771Z,59.55
2022-09-11T12:54:42.403Z,56.95
2022-09-11T12:57:24.882Z,55.83
2022-09-11T13:00:01.522Z,54.10
2022-09-11T13:02:38.156Z,51.69
2022-09-11T13:05:17.219Z,50.96
2022-09-11T13:07:47.418Z,46.02
2022-09-11T13:10:37.247Z,46.52
2022-09-11T13:13:11.599Z,46.94
2022-09-11T13:15:43.113Z,45.59
2022-09-11T13:18:36.411Z,46.00
2022-09-11T13:21:14.170Z,46.38
2022-09-11T13:23:44.585Z,43.51
2022-09-11T13:26:31.169Z,43.00
2022-09-11T13:29:00.592Z,44.04
2022-09-11T13:31:36.337Z,42.64
2022-09-11T13:34:12.055Z,43.05
2022-09-11T13:36:39.731Z,42.64
2022-09-11T13:39:08.696Z,43.80
2022-09-11T13:41:40.930Z,42.62
2022-09-11T13:44:31.328Z,38.88
2022-09-11T13:46:58.777Z,34.80
2022-09-11T13:49:38.895Z,34.92
2022-09-11T13:52:06.873Z,32.51
2022-09-11T13:54:41.166Z,34.38
2022-09-11T13:57:21.194Z,35.33
2022-09-11T13:59:56.959Z,34.26
2022-09-11T14:02:40.277Z,33.77
2022-09-11T14:05:31.348Z,30.66
2022-09-11T14:08:02.135Z,30.50
2022-09-11T14:10:43.894Z,30.24
2022-09-11T14:13:29.158Z,30.65
2022-09-11T14:16:01.491Z,32.62
2022-09-11T14:18:33.268Z,34.28
2022-09-11T14:21:05.251Z,35.04
2022-09-11T14:23:32.204Z,37.91
2022-09-11T14:26:16.885Z,38.53
2022-09-11T14:28:45.795Z,40.73
2022-09-11T14:31:14.747Z,40.34
2022-09-11T14:33:42.086Z,41.83
2022-09-11T14:36:19.098Z,40.29
2022-09-11T14:38:47.550Z,42.44
2022-09-11T14:41:14.358Z,42.35
2022-09-11T14:43:41.126Z,42.86
2022-09-11T14:46:07.950Z,39.18
2022-09-11T14:48:35.512Z,34.90
2022-09-11T14:51:08.858Z,35.38
2022-09-11T14:53:42.797Z,37.64
2022-09-11T14:56:10.270Z,39.50
2022-09-11T14:58:37.066Z,41.56
2022-09-11T15:01:03.938Z,43.00
2022-09-11T15:03:31.725Z,44.89
2022-09-11T15:05:58.852Z,47.04
2022-09-11T15:08:26.078Z,47.67
2022-09-11T15:10:53.568Z,48.88
2022-09-11T15:13:21.233Z,48.83
2022-09-11T15:15:48.102Z,50.24
2022-09-11T15:18:14.979Z,51.29
2022-09-11T15:20:41.751Z,50.90
2022-09-11T15:23:08.811Z,52.06
2022-09-11T15:25:35.553Z,52.19
2022-09-11T15:28:02.421Z,52.28
2022-09-11T15:30:29.340Z,52.19
2022-09-11T15:32:56.138Z,53.30
2022-09-11T15:35:23.286Z,52.34
2022-09-11T15:37:50.727Z,54.25
2022-09-11T15:40:17.856Z,54.04
2022-09-11T15:42:44.847Z,53.13
2022-09-11T15:45:13.210Z,54.33
2022-09-11T15:47:40.290Z,54.66
2022-09-11T15:50:08.857Z,54.49
2022-09-11T15:52:36.806Z,53.59
2022-09-11T15:55:04.859Z,54.17
2022-09-11T15:57:32.835Z,55.09
2022-09-11T15:59:59.638Z,54.87
2022-09-11T16:02:27.077Z,54.73
2022-09-11T16:04:54.123Z,54.37
2022-09-11T16:07:21.470Z,55.13
2022-09-11T16:09:48.233Z,54.70
2022-09-11T16:12:15.615Z,56.07
2022-09-11T16:14:42.894Z,55.16
2022-09-11T16:17:10.035Z,54.49
2022-09-11T16:19:38.529Z,55.57
2022-09-11T16:22:06.990Z,55.47
2022-09-11T16:24:37.274Z,56.55
2022-09-11T16:27:07.597Z,56.71
2022-09-11T16:30:05.454Z,57.45
2022-09-11T16:32:28.085Z,58.49
2022-09-11T16:34:57.029Z,58.76
2022-09-11T16:37:24.307Z,60.44
2022-09-11T16:39:51.237Z,61.10
2022-09-11T16:42:20.960Z,61.60
2022-09-11T16:44:48.534Z,61.59
2022-09-11T16:47:16.315Z,62.56
2022-09-11T16:52:29.843Z,63.70
2022-09-11T16:54:56.593Z,63.84
2022-09-11T16:57:23.391Z,63.80
2022-09-11T16:59:50.763Z,63.95
2022-09-11T17:02:17.577Z,63.78
2022-09-11T17:04:44.379Z,64.18
2022-09-11T17:07:11.166Z,64.36
2022-09-11T17:09:37.979Z,64.42
2022-09-11T17:12:04.738Z,65.24
2022-09-11T17:14:31.533Z,65.41
2022-09-11T17:16:58.270Z,65.98
2022-09-11T17:19:25.029Z,66.32
2022-09-11T17:21:51.839Z,66.51
2022-09-11T17:24:21.580Z,67.18
2022-09-11T17:26:50.556Z,67.53
2022-09-11T17:29:19.386Z,67.96
2022-09-11T17:31:46.338Z,68.75
2022-09-11T17:34:14.531Z,69.21
2022-09-11T17:36:41.297Z,69.85
2022-09-11T17:39:08.710Z,70.05
2022-09-11T17:41:35.816Z,70.48
2022-09-11T17:44:03.082Z,71.00
2022-09-11T17:46:29.904Z,71.02
2022-09-11T17:48:56.719Z,71.33
2022-09-11T17:51:26.125Z,71.56
2022-09-11T17:53:58.367Z,71.60
2022-09-11T17:56:33.973Z,71.63
2022-09-11T17:59:00.990Z,71.97
2022-09-11T18:01:30.580Z,72.07
2022-09-11T18:03:59.425Z,71.97
2022-09-11T18:06:29.752Z,73.00
2022-09-11T18:09:11.902Z,73.09
2022-09-11T18:11:40.675Z,74.08
2022-09-11T18:14:07.458Z,73.69
2022-09-11T18:16:34.250Z,74.05
2022-09-11T18:19:01.886Z,74.30
2022-09-11T18:21:28.991Z,74.14
2022-09-11T18:23:55.750Z,74.45
2022-09-11T18:26:26.487Z,74.21
2022-09-11T18:29:09.971Z,74.45
2022-09-11T18:31:43.510Z,74.26
2022-09-11T18:34:22.590Z,74.09
2022-09-11T18:36:49.663Z,73.64
2022-09-11T18:39:18.658Z,73.50
2022-09-11T18:41:47.345Z,73.10
2022-09-11T18:44:19.869Z,73.29
2022-09-11T18:46:47.718Z,73.74
2022-09-11T18:49:15.972Z,73.70
2022-09-11T18:51:43.292Z,73.64
2022-09-11T18:54:15.954Z,73.72
2022-09-11T18:56:43.528Z,73.47
2022-09-11T18:59:11.358Z,73.37
2022-09-11T19:01:39.684Z,73.10
2022-09-11T19:04:10.295Z,73.33
2022-09-11T19:06:38.676Z,73.55
2022-09-11T19:09:07.978Z,73.28
2022-09-11T19:11:34.778Z,73.18
2022-09-11T19:14:05.208Z,73.58
2022-09-11T19:16:32.529Z,73.96
2022-09-11T19:19:00.266Z,74.05
2022-09-11T19:21:27.989Z,74.43
2022-09-11T19:24:00.349Z,74.25
2022-09-11T19:26:35.598Z,74.12
2022-09-11T19:29:02.479Z,74.08
2022-09-11T19:31:30.000Z,74.08
2022-09-11T19:34:01.464Z,73.80
2022-09-11T19:36:31.915Z,73.87
2022-09-11T19:39:01.300Z,73.88
2022-09-11T19:41:35.297Z,73.89
2022-09-11T19:44:03.733Z,74.48
2022-09-11T19:46:32.844Z,74.61
2022-09-11T19:49:08.336Z,74.35
2022-09-11T19:51:42.690Z,74.74
2022-09-11T19:54:12.347Z,74.93
2022-09-11T19:56:39.750Z,74.85
2022-09-11T19:59:08.638Z,75.00
2022-09-11T20:01:36.149Z,75.52
2022-09-11T20:04:03.820Z,75.77
2022-09-11T20:06:33.973Z,75.68
2022-09-11T20:11:49.040Z,75.82
2022-09-11T20:14:16.341Z,75.94
2022-09-11T20:16:43.171Z,75.72
2022-09-11T20:19:10.402Z,75.90
2022-09-11T20:21:38.103Z,75.70
2022-09-11T20:24:09.203Z,76.02
2022-09-11T20:26:36.604Z,76.30
2022-09-11T20:29:10.642Z,76.45
2022-09-11T20:31:46.331Z,76.25
2022-09-11T20:34:15.115Z,76.14
2022-09-11T20:36:41.856Z,76.43
2022-09-11T20:39:13.440Z,76.39
2022-09-11T20:41:40.356Z,76.02
2022-09-11T20:44:07.131Z,76.01
2022-09-11T20:46:33.974Z,75.93
2022-09-11T20:49:01.035Z,75.99
2022-09-11T20:51:27.872Z,75.50
2022-09-11T20:53:55.982Z,75.59
2022-09-11T20:56:23.712Z,75.52
2022-09-11T20:58:50.918Z,75.43
2022-09-11T21:01:21.782Z,76.03
2022-09-11T21:03:57.838Z,76.14
2022-09-11T21:06:29.087Z,76.33
2022-09-11T21:09:00.028Z,76.52
2022-09-11T21:11:29.364Z,76.49
2022-09-11T21:13:56.191Z,76.27
2022-09-11T21:16:23.138Z,76.19
2022-09-11T21:18:52.978Z,76.11
2022-09-11T21:21:21.156Z,75.73
2022-09-11T21:23:48.516Z,75.62
2022-09-11T21:26:17.023Z,75.02
2022-09-11T21:28:44.382Z,77.03
2022-09-11T21:31:11.324Z,76.55
2022-09-11T21:33:38.890Z,76.50
2022-09-11T21:36:06.822Z,77.30
2022-09-11T21:38:33.621Z,77.15
2022-09-11T21:41:02.683Z,77.19
2022-09-11T21:43:29.640Z,77.92
2022-09-11T21:45:56.744Z,78.73
2022-09-11T21:48:24.362Z,78.98
2022-09-11T21:50:51.683Z,78.36
2022-09-11T21:53:19.263Z,77.87
2022-09-11T21:55:48.574Z,78.12
2022-09-11T21:58:20.627Z,77.98
2022-09-11T22:00:48.739Z,78.30
2022-09-11T22:03:18.329Z,77.83
2022-09-11T22:05:48.668Z,77.26
2022-09-11T22:08:18.170Z,77.28
2022-09-11T22:10:48.172Z,77.54
2022-09-11T22:13:16.727Z,77.78
2022-09-11T22:15:47.052Z,77.86
2022-09-11T22:18:14.898Z,78.19
2022-09-11T22:20:42.188Z,77.33
2022-09-11T22:23:18.327Z,77.96
2022-09-11T22:25:45.750Z,78.27
2022-09-11T22:28:12.923Z,78.00
2022-09-11T22:30:44.429Z,79.16
2022-09-11T22:33:11.487Z,79.26
2022-09-11T22:35:38.452Z,79.14
2022-09-11T22:38:05.355Z,79.40
2022-09-11T22:40:32.236Z,79.06
2022-09-11T22:42:59.062Z,78.94
2022-09-11T22:45:25.868Z,78.85
2022-09-11T22:47:52.644Z,78.54
2022-09-11T22:50:19.410Z,78.94
2022-09-11T22:52:46.206Z,78.52
2022-09-11T22:55:12.955Z,78.64
2022-09-11T22:57:39.846Z,78.82
2022-09-11T23:00:10.339Z,78.66
2022-09-11T23:02:37.841Z,78.54
2022-09-11T23:05:24.619Z,77.32
2022-09-11T23:07:52.681Z,76.89
2022-09-11T23:10:21.811Z,78.44
2022-09-11T23:12:48.569Z,78.11
2022-09-11T23:15:15.414Z,78.48
2022-09-11T23:17:42.155Z,77.76
2022-09-11T23:20:09.287Z,78.10
2022-09-11T23:22:36.354Z,77.90
2022-09-11T23:25:03.139Z,78.61
2022-09-11T23:27:29.935Z,78.51
2022-09-11T23:29:56.910Z,78.47
2022-09-11T23:32:23.669Z,78.63
2022-09-11T23:34:50.427Z,78.57
2022-09-11T23:37:17.175Z,78.36
2022-09-11T23:39:44.664Z,77.89
2022-09-11T23:42:11.427Z,78.05
2022-09-11T23:44:38.254Z,77.99
2022-09-11T23:47:05.015Z,77.51
2022-09-11T23:49:36.039Z,78.15
2022-09-11T23:52:04.591Z,78.40
2022-09-11T23:54:31.340Z,78.12
2022-09-11T23:56:58.142Z,78.85
2022-09-11T23:59:24.883Z,78.84
